createdAt,value
2023-12-17T00:02:16.852Z,102734.72
2023-12-17T00:05:19.585Z,102735.81
2023-12-17T00:08:23.906Z,102738.53
2023-12-17T00:11:26.711Z,102727.88
2023-12-17T00:14:29.440Z,102719.72
2023-12-17T00:17:32.501Z,102719.63
2023-12-17T00:20:35.427Z,102707.09
2023-12-17T00:23:39.615Z,102705.25
2023-12-17T00:26:42.363Z,102703.31
2023-12-17T00:29:45.438Z,102698.78
2023-12-17T00:32:49.713Z,102694.09
2023-12-17T00:35:53.451Z,102707.41
2023-12-17T00:38:57.460Z,102698.47
2023-12-17T00:42:00.503Z,102700.09
2023-12-17T00:45:03.369Z,102696.44
2023-12-17T00:48:06.401Z,102684.16
2023-12-17T00:51:12.253Z,102658.63
2023-12-17T00:54:16.438Z,102682.72
2023-12-17T00:57:19.736Z,102688.03
2023-12-17T01:00:22.917Z,102700.06
2023-12-17T01:03:25.799Z,102699.84
2023-12-17T01:06:28.667Z,102709.34
2023-12-17T01:09:32.754Z,102703.09
2023-12-17T01:12:35.473Z,102695.16
2023-12-17T01:15:38.765Z,102702.47
2023-12-17T01:18:41.737Z,102698.94
2023-12-17T01:21:44.535Z,102697.19
2023-12-17T01:24:50.758Z,102709.91
2023-12-17T01:27:53.474Z,102698.09
2023-12-17T01:30:56.275Z,102703.25
2023-12-17T01:33:59.197Z,102703.16
2023-12-17T01:37:02.027Z,102711.91
2023-12-17T01:40:07.958Z,102701.00
2023-12-17T01:43:10.945Z,102710.47
2023-12-17T01:46:13.972Z,102713.91
2023-12-17T01:49:16.857Z,102714.59
2023-12-17T01:52:19.986Z,102714.31
2023-12-17T01:55:24.367Z,102709.69
2023-12-17T01:58:27.356Z,102723.00
2023-12-17T02:01:30.673Z,102723.16
2023-12-17T02:04:33.918Z,102720.09
2023-12-17T02:07:37.264Z,102720.00
2023-12-17T02:10:41.553Z,102718.84
2023-12-17T02:13:44.251Z,102723.63
2023-12-17T02:16:46.997Z,102712.88
2023-12-17T02:19:49.947Z,102709.09
2023-12-17T02:22:58.656Z,102704.03
2023-12-17T02:26:04.594Z,102694.31
2023-12-17T02:29:07.380Z,102691.75
2023-12-17T02:32:10.109Z,102689.00
2023-12-17T02:35:12.847Z,102696.19
2023-12-17T02:38:15.680Z,102684.34
2023-12-17T02:41:21.512Z,102695.66
2023-12-17T02:44:24.703Z,102696.41
2023-12-17T02:47:27.478Z,102704.25
2023-12-17T02:50:30.417Z,102703.34
2023-12-17T02:53:33.261Z,102705.31
2023-12-17T02:56:41.223Z,102685.78
2023-12-17T02:59:44.028Z,102696.84
2023-12-17T03:02:47.056Z,102685.91
2023-12-17T03:05:50.057Z,102677.53
2023-12-17T03:08:53.264Z,102680.22
2023-12-17T03:11:57.671Z,102663.38
2023-12-17T03:15:00.607Z,102654.47
2023-12-17T03:18:04.778Z,102645.16
2023-12-17T03:21:09.629Z,102600.63
2023-12-17T03:24:12.415Z,102645.22
2023-12-17T03:27:16.815Z,102641.84
2023-12-17T03:30:20.062Z,102641.00
2023-12-17T03:33:23.226Z,102641.41
2023-12-17T03:36:26.493Z,102642.38
2023-12-17T03:39:29.389Z,102644.97
2023-12-17T03:42:33.577Z,102648.84
2023-12-17T03:45:36.864Z,102654.13
2023-12-17T03:48:39.765Z,102620.06
2023-12-17T03:51:42.571Z,102650.56
2023-12-17T03:54:45.804Z,102655.16
2023-12-17T03:57:50.083Z,102642.66
2023-12-17T04:00:52.854Z,102644.78
2023-12-17T04:03:55.920Z,102640.72
2023-12-17T04:06:58.774Z,102649.44
2023-12-17T04:10:02.776Z,102638.44
2023-12-17T04:13:06.900Z,102654.25
2023-12-17T04:16:10.096Z,102659.25
2023-12-17T04:19:12.957Z,102673.13
2023-12-17T04:22:15.771Z,102664.09
2023-12-17T04:25:18.529Z,102654.47
2023-12-17T04:28:22.631Z,102650.28
2023-12-17T04:31:25.474Z,102652.59
2023-12-17T04:34:28.491Z,102637.84
2023-12-17T04:37:31.440Z,102607.78
2023-12-17T04:40:34.201Z,102659.34
2023-12-17T04:43:38.308Z,102666.53
2023-12-17T04:46:41.219Z,102659.34
2023-12-17T04:49:44.046Z,102655.84
2023-12-17T04:52:46.949Z,102658.63
2023-12-17T04:55:49.763Z,102653.50
2023-12-17T04:58:53.886Z,102643.06
2023-12-17T05:01:56.663Z,102648.56
2023-12-17T05:04:59.587Z,102651.34
2023-12-17T05:08:02.724Z,102642.38
2023-12-17T05:11:05.853Z,102642.25
2023-12-17T05:14:10.519Z,102636.09
2023-12-17T05:17:13.356Z,102630.56
2023-12-17T05:20:16.338Z,102638.56
2023-12-17T05:23:19.086Z,102635.91
2023-12-17T05:26:21.911Z,102646.41
2023-12-17T05:29:26.060Z,102637.53
2023-12-17T05:32:28.824Z,102639.25
2023-12-17T05:35:31.618Z,102642.31
2023-12-17T05:38:34.891Z,102636.63
2023-12-17T05:41:37.658Z,102644.47
2023-12-17T05:44:41.779Z,102643.22
2023-12-17T05:47:44.993Z,102632.78
2023-12-17T05:50:49.033Z,102626.47
2023-12-17T05:53:52.079Z,102634.69
2023-12-17T05:56:55.521Z,102631.69
2023-12-17T05:59:59.696Z,102638.75
2023-12-17T06:03:02.533Z,102631.47
2023-12-17T06:06:07.643Z,102639.25
2023-12-17T06:09:10.753Z,102647.94
2023-12-17T06:12:13.667Z,102643.16
2023-12-17T06:15:18.117Z,102639.25
2023-12-17T06:18:21.125Z,102639.94
2023-12-17T06:21:25.702Z,102640.38
2023-12-17T06:24:28.610Z,102633.28
2023-12-17T06:27:32.843Z,102632.41
2023-12-17T06:30:37.788Z,102632.44
2023-12-17T06:33:40.854Z,102631.19
2023-12-17T06:36:43.656Z,102630.50
2023-12-17T06:39:46.677Z,102626.75
2023-12-17T06:42:49.443Z,102632.22
2023-12-17T06:45:53.725Z,102622.78
2023-12-17T06:48:56.590Z,102634.13
2023-12-17T06:51:59.506Z,102630.13
2023-12-17T06:55:02.398Z,102635.28
2023-12-17T06:58:05.784Z,102640.38
2023-12-17T07:01:11.841Z,102625.16
2023-12-17T07:04:14.885Z,102632.38
2023-12-17T07:07:17.904Z,102617.44
2023-12-17T07:10:21.711Z,102621.06
2023-12-17T07:13:24.462Z,102624.31
2023-12-17T07:16:30.360Z,102616.06
2023-12-17T07:19:33.170Z,102614.88
2023-12-17T07:22:36.020Z,102621.00
2023-12-17T07:25:38.889Z,102616.13
2023-12-17T07:28:41.784Z,102615.44
2023-12-17T07:31:45.919Z,102623.22
2023-12-17T07:34:48.695Z,102626.31
2023-12-17T07:37:51.445Z,102628.88
2023-12-17T07:40:55.376Z,102628.88
2023-12-17T07:43:59.059Z,102631.72
2023-12-17T07:47:04.352Z,102624.59
2023-12-17T07:50:09.273Z,102623.91
2023-12-17T07:53:12.028Z,102624.16
2023-12-17T07:56:14.919Z,102620.22
2023-12-17T07:59:18.009Z,102623.41
2023-12-17T08:02:22.205Z,102609.88
2023-12-17T08:05:24.992Z,102625.22
2023-12-17T08:08:27.727Z,102637.22
2023-12-17T08:11:30.590Z,102645.22
2023-12-17T08:14:33.433Z,102641.47
2023-12-17T08:17:37.740Z,102640.66
2023-12-17T08:20:40.592Z,102642.88
2023-12-17T08:23:43.356Z,102632.97
2023-12-17T08:26:46.998Z,102628.31
2023-12-17T08:29:52.330Z,102628.47
2023-12-17T08:32:56.731Z,102643.78
2023-12-17T08:35:59.557Z,102639.03
2023-12-17T08:39:02.466Z,102633.88
2023-12-17T08:42:05.811Z,102634.75
2023-12-17T08:45:09.872Z,102646.97
2023-12-17T08:48:14.392Z,102651.69
2023-12-17T08:51:18.449Z,102643.63
2023-12-17T08:54:21.231Z,102652.38
2023-12-17T08:57:24.026Z,102645.28
2023-12-17T09:00:26.906Z,102656.38
2023-12-17T09:03:31.104Z,102660.06
2023-12-17T09:06:33.969Z,102659.06
2023-12-17T09:09:36.734Z,102650.94
2023-12-17T09:12:39.517Z,102650.13
2023-12-17T09:15:42.475Z,102648.53
2023-12-17T09:18:46.738Z,102650.31
2023-12-17T09:21:49.589Z,102653.28
2023-12-17T09:24:52.432Z,102652.09
2023-12-17T09:27:55.283Z,102651.28
2023-12-17T09:30:58.165Z,102652.41
2023-12-17T09:34:02.365Z,102659.19
2023-12-17T09:37:05.519Z,102657.44
2023-12-17T09:40:10.198Z,102654.44
2023-12-17T09:43:13.041Z,102657.13
2023-12-17T09:46:15.960Z,102657.41
2023-12-17T09:49:20.291Z,102662.81
2023-12-17T09:52:29.876Z,102657.50
2023-12-17T09:55:32.834Z,102660.53
2023-12-17T09:58:35.593Z,102650.97
2023-12-17T10:01:38.385Z,102642.34
2023-12-17T10:04:42.631Z,102646.31
2023-12-17T10:07:45.979Z,102638.50
2023-12-17T10:10:48.997Z,102636.69
2023-12-17T10:13:53.032Z,102626.94
2023-12-17T10:16:56.004Z,102625.75
2023-12-17T10:20:00.895Z,102611.47
2023-12-17T10:23:04.822Z,102610.38
2023-12-17T10:26:08.243Z,102617.31
2023-12-17T10:29:14.657Z,102607.41
2023-12-17T10:32:22.493Z,102612.28
2023-12-17T10:35:27.597Z,102594.63
2023-12-17T10:38:31.081Z,102594.94
2023-12-17T10:41:35.173Z,102590.66
2023-12-17T10:44:39.754Z,102587.22
2023-12-17T10:47:43.077Z,102575.00
2023-12-17T10:50:50.471Z,102568.13
2023-12-17T10:53:53.373Z,102562.72
2023-12-17T10:56:58.660Z,102517.63
2023-12-17T11:00:02.826Z,102556.41
2023-12-17T11:03:08.289Z,102545.88
2023-12-17T11:06:12.827Z,102545.91
2023-12-17T11:09:18.164Z,102539.59
2023-12-17T11:12:21.101Z,102535.81
2023-12-17T11:15:25.266Z,102512.34
2023-12-17T11:18:43.521Z,102517.81
2023-12-17T11:21:47.876Z,102514.41
2023-12-17T11:24:51.018Z,102517.09
2023-12-17T11:27:54.931Z,102511.09
2023-12-17T11:30:58.253Z,102511.25
2023-12-17T11:34:02.299Z,102514.16
2023-12-17T11:37:06.615Z,102502.91
2023-12-17T11:40:11.089Z,102491.44
2023-12-17T11:43:14.170Z,102489.13
2023-12-17T11:46:16.966Z,102480.38
2023-12-17T11:49:24.928Z,102481.34
2023-12-17T11:52:30.152Z,102466.22
2023-12-17T11:55:45.754Z,102469.00
2023-12-17T11:58:49.134Z,102457.59
2023-12-17T12:01:54.563Z,102455.75
2023-12-17T12:04:57.552Z,102452.16
2023-12-17T12:08:02.531Z,102453.19
2023-12-17T12:11:06.190Z,102444.41
2023-12-17T12:14:10.269Z,102447.06
2023-12-17T12:17:49.050Z,102445.31
2023-12-17T12:20:53.341Z,102413.03
2023-12-17T12:23:58.387Z,102442.75
2023-12-17T12:27:06.474Z,102427.72
2023-12-17T12:30:25.938Z,102425.84
2023-12-17T12:33:31.669Z,102416.88
2023-12-17T12:36:44.894Z,102381.75
2023-12-17T12:39:59.941Z,102404.44
2023-12-17T12:43:06.435Z,102412.47
2023-12-17T12:46:09.807Z,102398.22
2023-12-17T12:49:12.723Z,102393.69
2023-12-17T12:52:16.538Z,102397.22
2023-12-17T12:55:20.637Z,102391.94
2023-12-17T12:58:24.082Z,102381.13
2023-12-17T13:01:27.129Z,102335.28
2023-12-17T13:04:29.965Z,102374.97
2023-12-17T13:07:34.151Z,102368.72
2023-12-17T13:10:38.392Z,102367.84
2023-12-17T13:13:41.274Z,102352.75
2023-12-17T13:16:44.057Z,102339.31
2023-12-17T13:19:46.951Z,102347.34
2023-12-17T13:22:50.019Z,102339.28
2023-12-17T13:25:58.188Z,102338.44
2023-12-17T13:29:04.253Z,102329.47
2023-12-17T13:32:07.766Z,102336.63
2023-12-17T13:35:11.248Z,102325.00
2023-12-17T13:38:14.160Z,102327.69
2023-12-17T13:41:19.484Z,102320.50
2023-12-17T13:44:22.270Z,102317.03
2023-12-17T13:47:25.454Z,102317.91
2023-12-17T13:50:28.233Z,102321.47
2023-12-17T13:53:30.978Z,102315.19
2023-12-17T13:56:39.167Z,102311.66
2023-12-17T13:59:43.910Z,102310.75
2023-12-17T14:02:46.678Z,102314.34
2023-12-17T14:05:49.524Z,102312.53
2023-12-17T14:08:52.553Z,102303.47
2023-12-17T14:11:56.766Z,102312.41
2023-12-17T14:15:00.762Z,102313.38
2023-12-17T14:18:04.991Z,102310.59
2023-12-17T14:21:08.804Z,102322.19
2023-12-17T14:24:11.636Z,102319.47
2023-12-17T14:27:16.083Z,102314.03
2023-12-17T14:30:19.046Z,102306.94
2023-12-17T14:33:22.046Z,102304.19
2023-12-17T14:36:25.143Z,102301.44
2023-12-17T14:39:27.948Z,102300.53
2023-12-17T14:42:32.076Z,102299.56
2023-12-17T14:45:35.127Z,102296.81
2023-12-17T14:48:38.065Z,102299.53
2023-12-17T14:51:40.918Z,102302.31
2023-12-17T14:54:44.169Z,102291.59
2023-12-17T14:57:48.627Z,102299.56
2023-12-17T15:00:51.870Z,102298.63
2023-12-17T15:03:55.471Z,102303.81
2023-12-17T15:06:58.557Z,102297.44
2023-12-17T15:10:02.555Z,102302.69
2023-12-17T15:13:06.920Z,102307.13
2023-12-17T15:16:10.212Z,102314.19
2023-12-17T15:19:13.365Z,102313.22
2023-12-17T15:22:16.780Z,102314.00
2023-12-17T15:25:20.517Z,102321.13
2023-12-17T15:28:25.375Z,102324.59
2023-12-17T15:31:29.922Z,102322.88
2023-12-17T15:34:32.794Z,102323.63
2023-12-17T15:37:35.557Z,102323.63
2023-12-17T15:40:40.597Z,102316.41
2023-12-17T15:43:44.811Z,102312.75
2023-12-17T15:46:47.560Z,102314.50
2023-12-17T15:49:50.360Z,102293.75
2023-12-17T15:52:53.109Z,102319.81
2023-12-17T15:55:56.014Z,102291.94
2023-12-17T15:59:00.166Z,102300.97
2023-12-17T16:02:04.354Z,102299.28
2023-12-17T16:05:08.074Z,102303.59
2023-12-17T16:08:10.880Z,102299.03
2023-12-17T16:11:13.713Z,102300.09
2023-12-17T16:14:17.859Z,102301.00
2023-12-17T16:17:20.970Z,102300.84
2023-12-17T16:20:25.468Z,102305.19
2023-12-17T16:23:28.450Z,102306.00
2023-12-17T16:26:31.420Z,102309.53
2023-12-17T16:29:35.584Z,102320.09
2023-12-17T16:32:39.992Z,102321.75
2023-12-17T16:35:44.357Z,102316.41
2023-12-17T16:38:47.238Z,102315.41
2023-12-17T16:41:50.000Z,102269.47
2023-12-17T16:44:54.335Z,102328.72
2023-12-17T16:47:57.594Z,102324.16
2023-12-17T16:51:00.625Z,102327.63
2023-12-17T16:54:03.507Z,102326.69
2023-12-17T16:57:06.884Z,102334.00
2023-12-17T17:00:11.891Z,102338.44
2023-12-17T17:03:14.839Z,102344.59
2023-12-17T17:06:17.630Z,102329.53
2023-12-17T17:09:20.728Z,102342.06
2023-12-17T17:12:23.688Z,102341.91
2023-12-17T17:15:27.932Z,102337.44
2023-12-17T17:18:31.876Z,102335.59
2023-12-17T17:21:35.109Z,102340.78
2023-12-17T17:24:38.118Z,102347.78
2023-12-17T17:27:41.171Z,102346.16
2023-12-17T17:30:45.547Z,102321.56
2023-12-17T17:33:49.907Z,102349.69
2023-12-17T17:36:54.208Z,102348.69
2023-12-17T17:39:58.839Z,102357.50
2023-12-17T17:43:02.890Z,102360.84
2023-12-17T17:46:07.786Z,102365.25
2023-12-17T17:49:11.214Z,102366.03
2023-12-17T17:52:14.070Z,102369.56
2023-12-17T17:55:16.882Z,102355.09
2023-12-17T17:58:19.639Z,102368.53
2023-12-17T18:01:23.786Z,102374.81
2023-12-17T18:04:26.719Z,102377.47
2023-12-17T18:07:29.558Z,102375.63
2023-12-17T18:10:32.353Z,102356.59
2023-12-17T18:13:35.787Z,102392.50
2023-12-17T18:16:40.074Z,102377.13
2023-12-17T18:19:45.327Z,102386.22
2023-12-17T18:22:48.126Z,102380.81
2023-12-17T18:25:50.857Z,102378.97
2023-12-17T18:28:55.534Z,102365.53
2023-12-17T18:31:59.741Z,102364.78
2023-12-17T18:35:02.476Z,102369.06
2023-12-17T18:38:05.797Z,102374.34
2023-12-17T18:41:09.007Z,102384.09
2023-12-17T18:44:11.792Z,102366.94
2023-12-17T18:47:16.064Z,102346.09
2023-12-17T18:50:18.830Z,102391.13
2023-12-17T18:53:21.790Z,102382.16
2023-12-17T18:56:24.604Z,102376.56
2023-12-17T18:59:27.370Z,102394.59
2023-12-17T19:02:32.006Z,102394.53
2023-12-17T19:05:34.818Z,102388.16
2023-12-17T19:08:38.287Z,102395.28
2023-12-17T19:11:41.599Z,102397.03
2023-12-17T19:14:44.344Z,102386.31
2023-12-17T19:17:48.534Z,102381.69
2023-12-17T19:20:51.359Z,102355.59
2023-12-17T19:23:54.917Z,102370.94
2023-12-17T19:26:57.861Z,102390.63
2023-12-17T19:30:01.336Z,102392.44
2023-12-17T19:33:10.473Z,102383.50
2023-12-17T19:36:15.432Z,102386.97
2023-12-17T19:39:18.478Z,102380.78
2023-12-17T19:42:23.057Z,102375.38
2023-12-17T19:45:26.468Z,102377.09
2023-12-17T19:48:31.957Z,102369.94
2023-12-17T19:51:35.082Z,102367.25
2023-12-17T19:54:39.780Z,102350.25
2023-12-17T19:57:42.933Z,102374.53
2023-12-17T20:00:45.853Z,102360.31
2023-12-17T20:03:52.243Z,102359.44
2023-12-17T20:06:55.671Z,102347.84
2023-12-17T20:09:58.567Z,102366.03
2023-12-17T20:13:01.628Z,102356.34
2023-12-17T20:16:05.973Z,102353.88
2023-12-17T20:19:10.796Z,102354.06
2023-12-17T20:22:13.783Z,102350.56
2023-12-17T20:25:16.636Z,102339.03
2023-12-17T20:28:19.546Z,102342.97
2023-12-17T20:31:22.425Z,102336.72
2023-12-17T20:34:26.827Z,102342.81
2023-12-17T20:37:29.831Z,102344.53
2023-12-17T20:40:32.865Z,102283.47
2023-12-17T20:43:35.793Z,102308.75
2023-12-17T20:46:38.584Z,102336.91
2023-12-17T20:49:42.725Z,102316.19
2023-12-17T20:52:45.531Z,102336.81
2023-12-17T20:55:48.297Z,102347.25
2023-12-17T20:58:53.152Z,102344.66
2023-12-17T21:01:56.156Z,102346.13
2023-12-17T21:05:02.012Z,102343.47
2023-12-17T21:08:05.320Z,102344.44
2023-12-17T21:11:08.661Z,102328.22
2023-12-17T21:14:11.434Z,102347.97
2023-12-17T21:17:14.314Z,102344.09
2023-12-17T21:20:18.589Z,102346.84
2023-12-17T21:23:21.473Z,102345.94
2023-12-17T21:26:25.397Z,102351.28
2023-12-17T21:29:28.806Z,102353.25
2023-12-17T21:32:31.620Z,102343.38
2023-12-17T21:35:37.800Z,102342.63
2023-12-17T21:38:41.536Z,102346.03
2023-12-17T21:41:44.514Z,102330.72
2023-12-17T21:44:47.436Z,102349.94
2023-12-17T21:47:51.137Z,102340.88
2023-12-17T21:50:58.325Z,102349.03
2023-12-17T21:54:01.418Z,102344.81
2023-12-17T21:57:17.441Z,102322.19
2023-12-17T22:00:21.951Z,102332.09
2023-12-17T22:03:24.800Z,102333.19
2023-12-17T22:06:29.165Z,102331.38
2023-12-17T22:09:33.260Z,102322.63
2023-12-17T22:12:36.976Z,102343.72
2023-12-17T22:15:40.020Z,102340.78
2023-12-17T22:18:44.956Z,102347.69
2023-12-17T22:21:49.980Z,102344.25
2023-12-17T22:24:52.732Z,102336.13
2023-12-17T22:27:55.561Z,102344.25
2023-12-17T22:30:58.560Z,102345.28
2023-12-17T22:34:01.597Z,102330.03
2023-12-17T22:37:07.779Z,102334.78
2023-12-17T22:40:11.364Z,102330.47
2023-12-17T22:43:14.327Z,102328.69
2023-12-17T22:46:20.184Z,102277.38
2023-12-17T22:49:23.235Z,102313.56
2023-12-17T22:52:28.198Z,102322.66
2023-12-17T22:55:31.832Z,102315.56
2023-12-17T22:58:34.756Z,102315.59
2023-12-17T23:01:38.287Z,102317.47
2023-12-17T23:04:43.090Z,102324.66
2023-12-17T23:07:47.582Z,102315.47
2023-12-17T23:10:52.085Z,102319.91
2023-12-17T23:13:55.136Z,102324.22
2023-12-17T23:16:58.167Z,102317.81
2023-12-17T23:20:00.988Z,102320.66
2023-12-17T23:23:05.474Z,102317.16
2023-12-17T23:26:08.540Z,102311.44
2023-12-17T23:29:11.648Z,102321.97
2023-12-17T23:32:21.954Z,102304.78
2023-12-17T23:35:31.188Z,102309.31
2023-12-17T23:38:35.371Z,102309.44
2023-12-17T23:41:38.148Z,102294.25
2023-12-17T23:44:40.856Z,102259.44
2023-12-17T23:47:43.974Z,102291.28
2023-12-17T23:50:47.145Z,102241.22
2023-12-17T23:53:52.510Z,102213.53
2023-12-17T23:56:55.291Z,102274.81
2023-12-17T23:59:58.053Z,102262.31
